sensor_id;sensor_type;location;lat;lon;timestamp;P1;durP1;ratioP1;P2;durP2;ratioP2
55090;SDS011;40985;53.180;5.800;2023-07-13T00:02:06;5.88;;;0.52;;
55090;SDS011;40985;53.180;5.800;2023-07-13T00:04:32;6.07;;;0.40;;
55090;SDS011;40985;53.180;5.800;2023-07-13T00:06:58;8.13;;;0.40;;
55090;SDS011;40985;53.180;5.800;2023-07-13T00:09:23;2.05;;;0.30;;
55090;SDS011;40985;53.180;5.800;2023-07-13T00:11:51;7.05;;;0.93;;
55090;SDS011;40985;53.180;5.800;2023-07-13T00:14:19;3.88;;;0.30;;
55090;SDS011;40985;53.180;5.800;2023-07-13T00:16:45;3.38;;;0.28;;
55090;SDS011;40985;53.180;5.800;2023-07-13T00:19:11;2.85;;;0.20;;
55090;SDS011;40985;53.180;5.800;2023-07-13T00:21:38;4.80;;;1.15;;
55090;SDS011;40985;53.180;5.800;2023-07-13T00:24:05;1.98;;;0.20;;
55090;SDS011;40985;53.180;5.800;2023-07-13T00:26:32;2.35;;;0.20;;
55090;SDS011;40985;53.180;5.800;2023-07-13T00:28:58;2.50;;;0.63;;
55090;SDS011;40985;53.180;5.800;2023-07-13T00:31:24;2.58;;;0.28;;
55090;SDS011;40985;53.180;5.800;2023-07-13T00:33:50;2.80;;;0.20;;
55090;SDS011;40985;53.180;5.800;2023-07-13T00:36:16;1.40;;;0.20;;
55090;SDS011;40985;53.180;5.800;2023-07-13T00:38:42;1.42;;;0.10;;
55090;SDS011;40985;53.180;5.800;2023-07-13T00:41:08;2.15;;;0.95;;
55090;SDS011;40985;53.180;5.800;2023-07-13T00:43:34;4.05;;;0.17;;
55090;SDS011;40985;53.180;5.800;2023-07-13T00:46:15;2.55;;;0.17;;
55090;SDS011;40985;53.180;5.800;2023-07-13T00:48:44;1.85;;;0.10;;
55090;SDS011;40985;53.180;5.800;2023-07-13T00:51:12;1.40;;;0.10;;
55090;SDS011;40985;53.180;5.800;2023-07-13T00:53:41;2.15;;;0.20;;
55090;SDS011;40985;53.180;5.800;2023-07-13T00:56:07;3.47;;;0.30;;
55090;SDS011;40985;53.180;5.800;2023-07-13T00:58:34;6.47;;;0.10;;
55090;SDS011;40985;53.180;5.800;2023-07-13T01:01:00;1.77;;;0.10;;
55090;SDS011;40985;53.180;5.800;2023-07-13T01:03:26;1.40;;;0.20;;
55090;SDS011;40985;53.180;5.800;2023-07-13T01:05:51;3.17;;;0.13;;
55090;SDS011;40985;53.180;5.800;2023-07-13T01:08:19;1.30;;;0.10;;
55090;SDS011;40985;53.180;5.800;2023-07-13T01:10:52;3.33;;;0.20;;
55090;SDS011;40985;53.180;5.800;2023-07-13T01:13:20;0.90;;;0.10;;
55090;SDS011;40985;53.180;5.800;2023-07-13T01:15:47;1.42;;;0.15;;
55090;SDS011;40985;53.180;5.800;2023-07-13T01:18:21;3.33;;;0.20;;
55090;SDS011;40985;53.180;5.800;2023-07-13T01:23:22;3.38;;;0.20;;
55090;SDS011;40985;53.180;5.800;2023-07-13T01:25:50;0.93;;;0.10;;
55090;SDS011;40985;53.180;5.800;2023-07-13T01:28:15;1.15;;;0.10;;
55090;SDS011;40985;53.180;5.800;2023-07-13T01:30:42;3.05;;;0.10;;
55090;SDS011;40985;53.180;5.800;2023-07-13T01:33:10;3.47;;;0.20;;
55090;SDS011;40985;53.180;5.800;2023-07-13T01:35:41;3.45;;;0.30;;
55090;SDS011;40985;53.180;5.800;2023-07-13T01:38:08;3.10;;;0.20;;
55090;SDS011;40985;53.180;5.800;2023-07-13T01:40:34;2.95;;;0.20;;
55090;SDS011;40985;53.180;5.800;2023-07-13T01:43:00;2.60;;;0.20;;
55090;SDS011;40985;53.180;5.800;2023-07-13T01:45:26;5.93;;;0.57;;
55090;SDS011;40985;53.180;5.800;2023-07-13T01:47:52;1.85;;;0.20;;
55090;SDS011;40985;53.180;5.800;2023-07-13T01:50:18;5.65;;;0.30;;
55090;SDS011;40985;53.180;5.800;2023-07-13T01:52:43;3.80;;;0.30;;
55090;SDS011;40985;53.180;5.800;2023-07-13T01:55:09;4.03;;;0.30;;
55090;SDS011;40985;53.180;5.800;2023-07-13T01:57:35;3.30;;;0.35;;
55090;SDS011;40985;53.180;5.800;2023-07-13T02:00:04;3.42;;;0.63;;
55090;SDS011;40985;53.180;5.800;2023-07-13T02:02:31;4.20;;;0.30;;
55090;SDS011;40985;53.180;5.800;2023-07-13T02:04:57;7.07;;;0.30;;
55090;SDS011;40985;53.180;5.800;2023-07-13T02:07:22;3.17;;;0.30;;
55090;SDS011;40985;53.180;5.800;2023-07-13T02:09:48;7.00;;;0.75;;
55090;SDS011;40985;53.180;5.800;2023-07-13T02:12:14;6.05;;;0.40;;
55090;SDS011;40985;53.180;5.800;2023-07-13T02:14:39;5.53;;;0.40;;
55090;SDS011;40985;53.180;5.800;2023-07-13T02:17:05;5.80;;;0.32;;
55090;SDS011;40985;53.180;5.800;2023-07-13T02:19:31;5.32;;;0.30;;
55090;SDS011;40985;53.180;5.800;2023-07-13T02:21:57;4.40;;;0.32;;
55090;SDS011;40985;53.180;5.800;2023-07-13T02:24:23;4.70;;;0.40;;
55090;SDS011;40985;53.180;5.800;2023-07-13T02:26:49;6.57;;;0.40;;
55090;SDS011;40985;53.180;5.800;2023-07-13T02:29:14;2.47;;;0.40;;
55090;SDS011;40985;53.180;5.800;2023-07-13T02:31:40;5.15;;;0.50;;
55090;SDS011;40985;53.180;5.800;2023-07-13T02:34:06;3.72;;;0.60;;
55090;SDS011;40985;53.180;5.800;2023-07-13T02:36:32;5.38;;;0.57;;
55090;SDS011;40985;53.180;5.800;2023-07-13T02:39:00;5.15;;;0.73;;
55090;SDS011;40985;53.180;5.800;2023-07-13T02:41:27;7.97;;;0.60;;
55090;SDS011;40985;53.180;5.800;2023-07-13T02:43:53;7.72;;;0.75;;
55090;SDS011;40985;53.180;5.800;2023-07-13T02:46:21;5.60;;;0.60;;
55090;SDS011;40985;53.180;5.800;2023-07-13T02:48:49;7.45;;;0.77;;
55090;SDS011;40985;53.180;5.800;2023-07-13T02:51:14;6.20;;;0.60;;
55090;SDS011;40985;53.180;5.800;2023-07-13T02:53:40;9.05;;;1.15;;
55090;SDS011;40985;53.180;5.800;2023-07-13T02:56:06;4.68;;;0.80;;
55090;SDS011;40985;53.180;5.800;2023-07-13T02:58:32;7.57;;;0.90;;
55090;SDS011;40985;53.180;5.800;2023-07-13T03:01:05;11.43;;;1.30;;
55090;SDS011;40985;53.180;5.800;2023-07-13T03:03:32;11.23;;;0.80;;
55090;SDS011;40985;53.180;5.800;2023-07-13T03:05:58;8.38;;;0.75;;
55090;SDS011;40985;53.180;5.800;2023-07-13T03:08:27;9.77;;;1.30;;
55090;SDS011;40985;53.180;5.800;2023-07-13T03:11:02;8.10;;;1.05;;
55090;SDS011;40985;53.180;5.800;2023-07-13T03:13:30;10.10;;;1.60;;
55090;SDS011;40985;53.180;5.800;2023-07-13T03:15:56;9.75;;;1.35;;
55090;SDS011;40985;53.180;5.800;2023-07-13T03:18:22;9.27;;;2.30;;
55090;SDS011;40985;53.180;5.800;2023-07-13T03:20:50;9.18;;;1.40;;
55090;SDS011;40985;53.180;5.800;2023-07-13T03:23:16;9.15;;;1.23;;
55090;SDS011;40985;53.180;5.800;2023-07-13T03:25:42;8.43;;;1.05;;
55090;SDS011;40985;53.180;5.800;2023-07-13T03:28:08;7.93;;;1.00;;
55090;SDS011;40985;53.180;5.800;2023-07-13T03:30:33;9.05;;;1.20;;
55090;SDS011;40985;53.180;5.800;2023-07-13T03:32:59;7.93;;;1.17;;
55090;SDS011;40985;53.180;5.800;2023-07-13T03:35:25;6.05;;;1.27;;
55090;SDS011;40985;53.180;5.800;2023-07-13T03:37:50;9.27;;;1.50;;
55090;SDS011;40985;53.180;5.800;2023-07-13T03:40:16;11.63;;;2.33;;
55090;SDS011;40985;53.180;5.800;2023-07-13T03:42:42;9.65;;;1.30;;
55090;SDS011;40985;53.180;5.800;2023-07-13T03:45:08;11.95;;;1.67;;
55090;SDS011;40985;53.180;5.800;2023-07-13T03:47:33;7.32;;;1.58;;
55090;SDS011;40985;53.180;5.800;2023-07-13T03:49:59;9.50;;;2.60;;
55090;SDS011;40985;53.180;5.800;2023-07-13T03:52:25;10.07;;;1.80;;
55090;SDS011;40985;53.180;5.800;2023-07-13T03:54:50;7.95;;;1.55;;
55090;SDS011;40985;53.180;5.800;2023-07-13T03:57:16;9.63;;;1.98;;
55090;SDS011;40985;53.180;5.800;2023-07-13T03:59:43;6.85;;;1.17;;
55090;SDS011;40985;53.180;5.800;2023-07-13T04:02:09;10.70;;;1.88;;
55090;SDS011;40985;53.180;5.800;2023-07-13T04:04:35;15.07;;;2.45;;
55090;SDS011;40985;53.180;5.800;2023-07-13T04:07:01;9.15;;;1.88;;
55090;SDS011;40985;53.180;5.800;2023-07-13T04:09:27;8.85;;;1.95;;
55090;SDS011;40985;53.180;5.800;2023-07-13T04:11:52;6.95;;;1.38;;
55090;SDS011;40985;53.180;5.800;2023-07-13T04:14:18;7.88;;;1.50;;
55090;SDS011;40985;53.180;5.800;2023-07-13T04:16:43;9.43;;;1.60;;
55090;SDS011;40985;53.180;5.800;2023-07-13T04:19:10;8.30;;;1.52;;
55090;SDS011;40985;53.180;5.800;2023-07-13T04:21:36;9.98;;;1.98;;
55090;SDS011;40985;53.180;5.800;2023-07-13T04:24:02;6.45;;;1.38;;
55090;SDS011;40985;53.180;5.800;2023-07-13T04:26:29;11.30;;;2.70;;
55090;SDS011;40985;53.180;5.800;2023-07-13T04:28:55;11.13;;;1.80;;
55090;SDS011;40985;53.180;5.800;2023-07-13T04:31:21;5.82;;;1.00;;
55090;SDS011;40985;53.180;5.800;2023-07-13T04:33:47;7.65;;;1.30;;
55090;SDS011;40985;53.180;5.800;2023-07-13T04:36:13;6.65;;;1.45;;
55090;SDS011;40985;53.180;5.800;2023-07-13T04:38:39;9.25;;;1.38;;
55090;SDS011;40985;53.180;5.800;2023-07-13T04:41:06;8.93;;;1.67;;
55090;SDS011;40985;53.180;5.800;2023-07-13T04:43:33;7.55;;;1.40;;
55090;SDS011;40985;53.180;5.800;2023-07-13T04:46:06;5.63;;;1.38;;
55090;SDS011;40985;53.180;5.800;2023-07-13T04:48:33;6.93;;;1.40;;
55090;SDS011;40985;53.180;5.800;2023-07-13T04:50:59;5.93;;;1.40;;
55090;SDS011;40985;53.180;5.800;2023-07-13T04:53:25;9.73;;;2.63;;
55090;SDS011;40985;53.180;5.800;2023-07-13T04:55:51;11.27;;;1.73;;
55090;SDS011;40985;53.180;5.800;2023-07-13T04:58:17;9.63;;;1.95;;
55090;SDS011;40985;53.180;5.800;2023-07-13T05:00:43;9.20;;;2.08;;
55090;SDS011;40985;53.180;5.800;2023-07-13T05:03:09;6.82;;;1.38;;
55090;SDS011;40985;53.180;5.800;2023-07-13T05:05:35;8.45;;;1.67;;
55090;SDS011;40985;53.180;5.800;2023-07-13T05:08:01;7.97;;;1.95;;
55090;SDS011;40985;53.180;5.800;2023-07-13T05:10:27;8.00;;;1.40;;
55090;SDS011;40985;53.180;5.800;2023-07-13T05:12:53;8.90;;;2.13;;
55090;SDS011;40985;53.180;5.800;2023-07-13T05:15:20;10.23;;;1.63;;
55090;SDS011;40985;53.180;5.800;2023-07-13T05:17:47;7.05;;;1.42;;
55090;SDS011;40985;53.180;5.800;2023-07-13T05:20:14;6.60;;;1.08;;
55090;SDS011;40985;53.180;5.800;2023-07-13T05:22:41;5.88;;;1.02;;
55090;SDS011;40985;53.180;5.800;2023-07-13T05:25:07;8.13;;;1.08;;
55090;SDS011;40985;53.180;5.800;2023-07-13T05:27:34;5.22;;;1.27;;
55090;SDS011;40985;53.180;5.800;2023-07-13T05:30:01;4.95;;;0.73;;
55090;SDS011;40985;53.180;5.800;2023-07-13T05:32:27;4.35;;;0.90;;
55090;SDS011;40985;53.180;5.800;2023-07-13T05:34:53;6.18;;;0.63;;
55090;SDS011;40985;53.180;5.800;2023-07-13T05:37:19;8.20;;;0.98;;
55090;SDS011;40985;53.180;5.800;2023-07-13T05:39:44;6.78;;;0.90;;
55090;SDS011;40985;53.180;5.800;2023-07-13T05:42:10;5.20;;;0.80;;
55090;SDS011;40985;53.180;5.800;2023-07-13T05:44:36;8.80;;;0.95;;
55090;SDS011;40985;53.180;5.800;2023-07-13T05:47:01;5.15;;;0.77;;
55090;SDS011;40985;53.180;5.800;2023-07-13T05:49:27;6.20;;;0.70;;
55090;SDS011;40985;53.180;5.800;2023-07-13T05:51:55;7.00;;;0.70;;
55090;SDS011;40985;53.180;5.800;2023-07-13T05:54:21;5.82;;;0.60;;
55090;SDS011;40985;53.180;5.800;2023-07-13T05:56:47;6.50;;;1.02;;
55090;SDS011;40985;53.180;5.800;2023-07-13T05:59:13;4.63;;;0.50;;
55090;SDS011;40985;53.180;5.800;2023-07-13T06:01:38;4.20;;;0.50;;
55090;SDS011;40985;53.180;5.800;2023-07-13T06:04:04;3.40;;;0.32;;
55090;SDS011;40985;53.180;5.800;2023-07-13T06:06:30;3.33;;;0.30;;
55090;SDS011;40985;53.180;5.800;2023-07-13T06:08:55;3.40;;;0.30;;
55090;SDS011;40985;53.180;5.800;2023-07-13T06:11:25;3.53;;;0.40;;
55090;SDS011;40985;53.180;5.800;2023-07-13T06:13:52;6.28;;;0.50;;
55090;SDS011;40985;53.180;5.800;2023-07-13T06:16:19;6.32;;;0.60;;
55090;SDS011;40985;53.180;5.800;2023-07-13T06:18:45;2.20;;;0.40;;
55090;SDS011;40985;53.180;5.800;2023-07-13T06:21:18;2.63;;;0.30;;
55090;SDS011;40985;53.180;5.800;2023-07-13T06:23:45;3.13;;;0.30;;
55090;SDS011;40985;53.180;5.800;2023-07-13T06:26:12;3.10;;;0.40;;
55090;SDS011;40985;53.180;5.800;2023-07-13T06:28:38;4.57;;;0.20;;
55090;SDS011;40985;53.180;5.800;2023-07-13T06:31:06;3.42;;;0.25;;
55090;SDS011;40985;53.180;5.800;2023-07-13T06:33:33;4.72;;;0.32;;
55090;SDS011;40985;53.180;5.800;2023-07-13T06:35:59;3.08;;;0.35;;
55090;SDS011;40985;53.180;5.800;2023-07-13T06:38:24;3.90;;;0.20;;
55090;SDS011;40985;53.180;5.800;2023-07-13T06:40:50;4.82;;;0.65;;
55090;SDS011;40985;53.180;5.800;2023-07-13T06:43:17;7.32;;;1.58;;
55090;SDS011;40985;53.180;5.800;2023-07-13T06:45:46;4.18;;;0.50;;
55090;SDS011;40985;53.180;5.800;2023-07-13T06:48:18;3.72;;;0.40;;
55090;SDS011;40985;53.180;5.800;2023-07-13T06:50:45;2.70;;;0.20;;
55090;SDS011;40985;53.180;5.800;2023-07-13T06:53:11;2.90;;;0.30;;
55090;SDS011;40985;53.180;5.800;2023-07-13T06:55:38;1.75;;;0.22;;
55090;SDS011;40985;53.180;5.800;2023-07-13T06:58:04;3.28;;;0.20;;
55090;SDS011;40985;53.180;5.800;2023-07-13T07:00:30;2.60;;;0.30;;
55090;SDS011;40985;53.180;5.800;2023-07-13T07:02:56;1.77;;;0.30;;
55090;SDS011;40985;53.180;5.800;2023-07-13T07:05:22;3.40;;;0.30;;
55090;SDS011;40985;53.180;5.800;2023-07-13T07:07:51;3.10;;;0.25;;
55090;SDS011;40985;53.180;5.800;2023-07-13T07:10:19;1.15;;;0.25;;
55090;SDS011;40985;53.180;5.800;2023-07-13T07:12:45;1.25;;;0.20;;
55090;SDS011;40985;53.180;5.800;2023-07-13T07:15:11;5.53;;;0.30;;
55090;SDS011;40985;53.180;5.800;2023-07-13T07:17:36;5.35;;;0.20;;
55090;SDS011;40985;53.180;5.800;2023-07-13T07:20:02;3.28;;;0.30;;
55090;SDS011;40985;53.180;5.800;2023-07-13T07:22:29;3.58;;;0.28;;
55090;SDS011;40985;53.180;5.800;2023-07-13T07:24:55;3.05;;;0.32;;
55090;SDS011;40985;53.180;5.800;2023-07-13T07:27:21;1.45;;;0.20;;
55090;SDS011;40985;53.180;5.800;2023-07-13T07:29:48;1.33;;;0.60;;
55090;SDS011;40985;53.180;5.800;2023-07-13T07:32:13;2.75;;;0.25;;
55090;SDS011;40985;53.180;5.800;2023-07-13T07:34:39;2.17;;;0.35;;
55090;SDS011;40985;53.180;5.800;2023-07-13T07:37:05;2.67;;;0.30;;
55090;SDS011;40985;53.180;5.800;2023-07-13T07:39:31;1.65;;;0.30;;
55090;SDS011;40985;53.180;5.800;2023-07-13T07:41:57;1.52;;;0.35;;
55090;SDS011;40985;53.180;5.800;2023-07-13T07:44:23;2.88;;;0.45;;
55090;SDS011;40985;53.180;5.800;2023-07-13T07:46:49;3.00;;;0.65;;
55090;SDS011;40985;53.180;5.800;2023-07-13T07:49:15;2.53;;;0.30;;
55090;SDS011;40985;53.180;5.800;2023-07-13T07:51:41;1.60;;;0.22;;
55090;SDS011;40985;53.180;5.800;2023-07-13T07:54:06;2.42;;;0.40;;
55090;SDS011;40985;53.180;5.800;2023-07-13T07:56:32;2.92;;;0.30;;
55090;SDS011;40985;53.180;5.800;2023-07-13T07:58:58;3.80;;;0.40;;
55090;SDS011;40985;53.180;5.800;2023-07-13T08:01:24;2.05;;;0.30;;
55090;SDS011;40985;53.180;5.800;2023-07-13T08:03:50;3.67;;;0.20;;
55090;SDS011;40985;53.180;5.800;2023-07-13T08:06:16;2.75;;;0.30;;
55090;SDS011;40985;53.180;5.800;2023-07-13T08:08:41;7.63;;;0.50;;
55090;SDS011;40985;53.180;5.800;2023-07-13T08:11:07;3.22;;;0.40;;
55090;SDS011;40985;53.180;5.800;2023-07-13T08:13:34;1.83;;;0.60;;
55090;SDS011;40985;53.180;5.800;2023-07-13T08:16:00;3.03;;;0.30;;
55090;SDS011;40985;53.180;5.800;2023-07-13T08:18:26;2.03;;;0.20;;
55090;SDS011;40985;53.180;5.800;2023-07-13T08:20:55;1.25;;;0.20;;
55090;SDS011;40985;53.180;5.800;2023-07-13T08:23:24;3.33;;;0.30;;
55090;SDS011;40985;53.180;5.800;2023-07-13T08:25:54;2.97;;;0.30;;
55090;SDS011;40985;53.180;5.800;2023-07-13T08:28:20;2.17;;;0.30;;
55090;SDS011;40985;53.180;5.800;2023-07-13T08:30:47;3.88;;;0.90;;
55090;SDS011;40985;53.180;5.800;2023-07-13T08:33:17;3.97;;;0.43;;
55090;SDS011;40985;53.180;5.800;2023-07-13T08:35:47;3.10;;;0.32;;
55090;SDS011;40985;53.180;5.800;2023-07-13T08:38:13;1.60;;;0.50;;
55090;SDS011;40985;53.180;5.800;2023-07-13T08:40:39;1.33;;;0.10;;
55090;SDS011;40985;53.180;5.800;2023-07-13T08:43:07;3.33;;;0.20;;
55090;SDS011;40985;53.180;5.800;2023-07-13T08:45:46;2.22;;;0.17;;
55090;SDS011;40985;53.180;5.800;2023-07-13T08:53:47;3.85;;;0.30;;
55090;SDS011;40985;53.180;5.800;2023-07-13T08:56:18;1.80;;;0.43;;
55090;SDS011;40985;53.180;5.800;2023-07-13T08:58:48;1.05;;;0.10;;
55090;SDS011;40985;53.180;5.800;2023-07-13T09:04:05;2.25;;;0.65;;
55090;SDS011;40985;53.180;5.800;2023-07-13T09:06:55;2.92;;;0.20;;
55090;SDS011;40985;53.180;5.800;2023-07-13T09:12:02;3.15;;;0.30;;
55090;SDS011;40985;53.180;5.800;2023-07-13T09:17:13;4.20;;;0.45;;
55090;SDS011;40985;53.180;5.800;2023-07-13T09:19:51;3.08;;;0.30;;
55090;SDS011;40985;53.180;5.800;2023-07-13T09:22:21;1.85;;;0.20;;
55090;SDS011;40985;53.180;5.800;2023-07-13T09:28:41;1.55;;;0.20;;
55090;SDS011;40985;53.180;5.800;2023-07-13T09:30:56;2.15;;;0.20;;
55090;SDS011;40985;53.180;5.800;2023-07-13T09:33:32;1.10;;;0.20;;
55090;SDS011;40985;53.180;5.800;2023-07-13T09:36:00;3.05;;;0.10;;
55090;SDS011;40985;53.180;5.800;2023-07-13T09:38:27;0.65;;;0.30;;
55090;SDS011;40985;53.180;5.800;2023-07-13T09:46:56;1.48;;;0.20;;
55090;SDS011;40985;53.180;5.800;2023-07-13T09:49:25;0.70;;;0.15;;
55090;SDS011;40985;53.180;5.800;2023-07-13T09:52:03;2.25;;;0.47;;
55090;SDS011;40985;53.180;5.800;2023-07-13T09:54:35;3.85;;;0.68;;
55090;SDS011;40985;53.180;5.800;2023-07-13T09:57:02;2.15;;;0.25;;
55090;SDS011;40985;53.180;5.800;2023-07-13T09:59:30;0.40;;;0.10;;
55090;SDS011;40985;53.180;5.800;2023-07-13T10:01:58;3.40;;;0.28;;
55090;SDS011;40985;53.180;5.800;2023-07-13T10:04:31;1.10;;;0.20;;
55090;SDS011;40985;53.180;5.800;2023-07-13T10:07:08;2.20;;;0.13;;
55090;SDS011;40985;53.180;5.800;2023-07-13T10:09:38;2.90;;;0.22;;
55090;SDS011;40985;53.180;5.800;2023-07-13T10:12:04;4.30;;;0.30;;
55090;SDS011;40985;53.180;5.800;2023-07-13T10:14:42;6.30;;;0.40;;
55090;SDS011;40985;53.180;5.800;2023-07-13T10:17:10;4.10;;;0.30;;
55090;SDS011;40985;53.180;5.800;2023-07-13T10:19:39;4.63;;;0.32;;
55090;SDS011;40985;53.180;5.800;2023-07-13T10:22:18;1.23;;;0.20;;
55090;SDS011;40985;53.180;5.800;2023-07-13T10:24:52;4.82;;;0.30;;
55090;SDS011;40985;53.180;5.800;2023-07-13T10:27:20;5.28;;;0.80;;
55090;SDS011;40985;53.180;5.800;2023-07-13T10:30:02;2.17;;;0.20;;
55090;SDS011;40985;53.180;5.800;2023-07-13T10:32:34;2.40;;;0.20;;
55090;SDS011;40985;53.180;5.800;2023-07-13T10:35:01;3.00;;;0.35;;
55090;SDS011;40985;53.180;5.800;2023-07-13T10:37:33;4.25;;;0.40;;
55090;SDS011;40985;53.180;5.800;2023-07-13T10:40:06;6.32;;;0.30;;
55090;SDS011;40985;53.180;5.800;2023-07-13T10:42:40;3.67;;;0.45;;
55090;SDS011;40985;53.180;5.800;2023-07-13T10:45:14;3.45;;;0.40;;
55090;SDS011;40985;53.180;5.800;2023-07-13T10:50:13;2.38;;;0.40;;
55090;SDS011;40985;53.180;5.800;2023-07-13T10:52:49;1.95;;;0.30;;
55090;SDS011;40985;53.180;5.800;2023-07-13T10:55:36;2.35;;;0.35;;
55090;SDS011;40985;53.180;5.800;2023-07-13T10:58:31;5.25;;;0.40;;
55090;SDS011;40985;53.180;5.800;2023-07-13T11:03:54;4.60;;;0.40;;
55090;SDS011;40985;53.180;5.800;2023-07-13T11:08:55;6.68;;;0.50;;
55090;SDS011;40985;53.180;5.800;2023-07-13T11:11:42;5.28;;;0.30;;
55090;SDS011;40985;53.180;5.800;2023-07-13T11:16:52;3.50;;;0.40;;
55090;SDS011;40985;53.180;5.800;2023-07-13T11:30:08;3.70;;;0.50;;
55090;SDS011;40985;53.180;5.800;2023-07-13T11:33:02;7.32;;;0.32;;
55090;SDS011;40985;53.180;5.800;2023-07-13T11:41:10;6.07;;;0.50;;
55090;SDS011;40985;53.180;5.800;2023-07-13T11:44:19;4.47;;;0.32;;
55090;SDS011;40985;53.180;5.800;2023-07-13T11:46:47;9.20;;;0.60;;
55090;SDS011;40985;53.180;5.800;2023-07-13T11:49:17;6.25;;;0.30;;
55090;SDS011;40985;53.180;5.800;2023-07-13T11:51:54;3.97;;;0.40;;
55090;SDS011;40985;53.180;5.800;2023-07-13T11:56:49;4.95;;;0.32;;
55090;SDS011;40985;53.180;5.800;2023-07-13T11:59:15;5.43;;;0.70;;
55090;SDS011;40985;53.180;5.800;2023-07-13T12:01:43;11.40;;;1.13;;
55090;SDS011;40985;53.180;5.800;2023-07-13T12:04:21;5.95;;;0.32;;
55090;SDS011;40985;53.180;5.800;2023-07-13T12:07:14;9.70;;;0.40;;
55090;SDS011;40985;53.180;5.800;2023-07-13T12:09:42;3.08;;;0.25;;
55090;SDS011;40985;53.180;5.800;2023-07-13T12:12:18;10.32;;;0.50;;
55090;SDS011;40985;53.180;5.800;2023-07-13T12:14:53;4.93;;;0.50;;
55090;SDS011;40985;53.180;5.800;2023-07-13T12:17:21;4.55;;;0.90;;
55090;SDS011;40985;53.180;5.800;2023-07-13T12:19:49;5.63;;;0.50;;
55090;SDS011;40985;53.180;5.800;2023-07-13T12:22:16;8.60;;;1.05;;
55090;SDS011;40985;53.180;5.800;2023-07-13T12:24:44;5.20;;;0.60;;
55090;SDS011;40985;53.180;5.800;2023-07-13T12:27:22;6.68;;;1.15;;
55090;SDS011;40985;53.180;5.800;2023-07-13T12:29:57;4.72;;;0.50;;
55090;SDS011;40985;53.180;5.800;2023-07-13T12:32:30;5.55;;;0.60;;
55090;SDS011;40985;53.180;5.800;2023-07-13T12:34:57;7.78;;;0.93;;
55090;SDS011;40985;53.180;5.800;2023-07-13T12:37:39;13.35;;;1.85;;
55090;SDS011;40985;53.180;5.800;2023-07-13T12:40:17;9.98;;;0.65;;
55090;SDS011;40985;53.180;5.800;2023-07-13T12:42:47;5.63;;;0.60;;
55090;SDS011;40985;53.180;5.800;2023-07-13T12:45:24;6.53;;;0.50;;
55090;SDS011;40985;53.180;5.800;2023-07-13T12:47:54;2.33;;;0.30;;
55090;SDS011;40985;53.180;5.800;2023-07-13T12:50:41;3.15;;;0.50;;
55090;SDS011;40985;53.180;5.800;2023-07-13T12:53:20;6.38;;;0.70;;
55090;SDS011;40985;53.180;5.800;2023-07-13T12:55:54;5.22;;;0.80;;
55090;SDS011;40985;53.180;5.800;2023-07-13T13:00:57;5.97;;;0.50;;
55090;SDS011;40985;53.180;5.800;2023-07-13T13:06:02;4.53;;;0.47;;
55090;SDS011;40985;53.180;5.800;2023-07-13T13:08:40;4.32;;;0.88;;
55090;SDS011;40985;53.180;5.800;2023-07-13T13:11:07;6.00;;;0.70;;
55090;SDS011;40985;53.180;5.800;2023-07-13T13:13:34;2.83;;;0.50;;
55090;SDS011;40985;53.180;5.800;2023-07-13T13:16:14;3.95;;;0.63;;
55090;SDS011;40985;53.180;5.800;2023-07-13T13:18:54;4.45;;;0.45;;
55090;SDS011;40985;53.180;5.800;2023-07-13T13:21:22;5.22;;;0.63;;
55090;SDS011;40985;53.180;5.800;2023-07-13T13:23:49;4.43;;;0.43;;
55090;SDS011;40985;53.180;5.800;2023-07-13T13:26:16;3.45;;;0.40;;
55090;SDS011;40985;53.180;5.800;2023-07-13T13:28:43;6.40;;;0.45;;
55090;SDS011;40985;53.180;5.800;2023-07-13T13:31:11;6.00;;;0.75;;
55090;SDS011;40985;53.180;5.800;2023-07-13T13:33:41;4.00;;;0.40;;
55090;SDS011;40985;53.180;5.800;2023-07-13T13:36:16;6.60;;;0.50;;
55090;SDS011;40985;53.180;5.800;2023-07-13T13:38:47;4.03;;;0.55;;
55090;SDS011;40985;53.180;5.800;2023-07-13T13:41:14;5.03;;;0.50;;
55090;SDS011;40985;53.180;5.800;2023-07-13T13:43:41;6.13;;;0.95;;
55090;SDS011;40985;53.180;5.800;2023-07-13T13:46:13;4.60;;;0.40;;
55090;SDS011;40985;53.180;5.800;2023-07-13T13:48:39;2.67;;;0.40;;
55090;SDS011;40985;53.180;5.800;2023-07-13T13:51:11;3.70;;;0.52;;
55090;SDS011;40985;53.180;5.800;2023-07-13T13:53:40;3.53;;;0.50;;
55090;SDS011;40985;53.180;5.800;2023-07-13T13:56:06;4.10;;;0.50;;
55090;SDS011;40985;53.180;5.800;2023-07-13T13:58:32;3.35;;;0.45;;
55090;SDS011;40985;53.180;5.800;2023-07-13T14:00:58;7.95;;;0.73;;
55090;SDS011;40985;53.180;5.800;2023-07-13T14:03:23;4.03;;;0.50;;
55090;SDS011;40985;53.180;5.800;2023-07-13T14:05:49;4.80;;;0.60;;
55090;SDS011;40985;53.180;5.800;2023-07-13T14:08:19;2.30;;;0.30;;
55090;SDS011;40985;53.180;5.800;2023-07-13T14:10:46;2.53;;;0.57;;
55090;SDS011;40985;53.180;5.800;2023-07-13T14:13:22;4.25;;;0.47;;
55090;SDS011;40985;53.180;5.800;2023-07-13T14:15:52;3.22;;;0.70;;
55090;SDS011;40985;53.180;5.800;2023-07-13T14:18:19;4.60;;;0.75;;
55090;SDS011;40985;53.180;5.800;2023-07-13T14:20:45;4.70;;;0.70;;
55090;SDS011;40985;53.180;5.800;2023-07-13T14:23:13;3.95;;;0.50;;
55090;SDS011;40985;53.180;5.800;2023-07-13T14:25:40;4.55;;;0.50;;
55090;SDS011;40985;53.180;5.800;2023-07-13T14:28:25;2.42;;;0.52;;
55090;SDS011;40985;53.180;5.800;2023-07-13T14:30:52;1.95;;;0.45;;
55090;SDS011;40985;53.180;5.800;2023-07-13T14:33:19;5.75;;;0.57;;
55090;SDS011;40985;53.180;5.800;2023-07-13T14:35:45;4.10;;;0.47;;
55090;SDS011;40985;53.180;5.800;2023-07-13T14:38:13;4.03;;;0.40;;
55090;SDS011;40985;53.180;5.800;2023-07-13T14:40:42;4.55;;;0.73;;
55090;SDS011;40985;53.180;5.800;2023-07-13T14:43:12;5.63;;;1.45;;
55090;SDS011;40985;53.180;5.800;2023-07-13T14:45:40;3.60;;;0.47;;
55090;SDS011;40985;53.180;5.800;2023-07-13T14:48:21;4.93;;;0.50;;
55090;SDS011;40985;53.180;5.800;2023-07-13T14:50:53;5.85;;;0.50;;
55090;SDS011;40985;53.180;5.800;2023-07-13T14:53:21;5.05;;;0.60;;
55090;SDS011;40985;53.180;5.800;2023-07-13T14:55:47;4.00;;;0.50;;
55090;SDS011;40985;53.180;5.800;2023-07-13T14:58:13;3.85;;;0.47;;
55090;SDS011;40985;53.180;5.800;2023-07-13T15:00:39;5.55;;;0.70;;
55090;SDS011;40985;53.180;5.800;2023-07-13T15:03:05;3.25;;;0.60;;
55090;SDS011;40985;53.180;5.800;2023-07-13T15:05:47;4.97;;;0.50;;
55090;SDS011;40985;53.180;5.800;2023-07-13T15:08:13;7.07;;;0.98;;
55090;SDS011;40985;53.180;5.800;2023-07-13T15:10:40;4.22;;;0.73;;
55090;SDS011;40985;53.180;5.800;2023-07-13T15:13:13;5.53;;;0.80;;
55090;SDS011;40985;53.180;5.800;2023-07-13T15:15:43;6.45;;;1.10;;
55090;SDS011;40985;53.180;5.800;2023-07-13T15:18:12;4.30;;;0.63;;
55090;SDS011;40985;53.180;5.800;2023-07-13T15:20:42;8.82;;;0.80;;
55090;SDS011;40985;53.180;5.800;2023-07-13T15:23:10;6.40;;;1.25;;
55090;SDS011;40985;53.180;5.800;2023-07-13T15:25:36;9.35;;;1.17;;
55090;SDS011;40985;53.180;5.800;2023-07-13T15:28:02;3.25;;;0.70;;
55090;SDS011;40985;53.180;5.800;2023-07-13T15:30:29;3.75;;;1.00;;
55090;SDS011;40985;53.180;5.800;2023-07-13T15:33:05;3.80;;;0.70;;
55090;SDS011;40985;53.180;5.800;2023-07-13T15:35:50;5.22;;;0.50;;
55090;SDS011;40985;53.180;5.800;2023-07-13T15:38:22;5.22;;;0.82;;
55090;SDS011;40985;53.180;5.800;2023-07-13T15:40:50;4.30;;;0.85;;
55090;SDS011;40985;53.180;5.800;2023-07-13T15:43:17;6.75;;;1.13;;
55090;SDS011;40985;53.180;5.800;2023-07-13T15:45:44;3.78;;;0.50;;
55090;SDS011;40985;53.180;5.800;2023-07-13T15:48:16;6.80;;;1.10;;
55090;SDS011;40985;53.180;5.800;2023-07-13T15:50:44;5.20;;;0.50;;
55090;SDS011;40985;53.180;5.800;2023-07-13T15:53:13;3.33;;;0.55;;
55090;SDS011;40985;53.180;5.800;2023-07-13T15:55:51;5.18;;;1.00;;
55090;SDS011;40985;53.180;5.800;2023-07-13T15:58:17;5.60;;;0.52;;